DLH269 WIPP-WSSS
Flight info
| Callsign | DLH269 |
|---|---|
| Flight time | 0h 38m |
| Altitude | 34000 |
| Route | PARDI G579 REPOV REPOV2B |
| Aircraft | A35K/H-SDE2E3GHIJ3J4J5LM1ORWXY/LB1D1 |
Departure
| Time | 2026-05-07 09:10 |
|---|---|
| Airport | Sultan Mahmud Badaruddin II Airport (WIPP) |
Arrival
| Time | 2026-05-07 09:49 |
|---|---|
| Airport | Singapore Changi Airport (WSSS) |
| Time | Latitude | Longitude | Altitude | Speed | Heading |
|---|---|---|---|---|---|
| 2026-05-07 09:02 | -2.89718 | 104.70622 | 44 ft | 0 kts | 23° |
| 2026-05-07 09:06 | -2.89723 | 104.70620 | 44 ft | 2 kts | 23° |
| 2026-05-07 09:06 | -2.89733 | 104.70616 | 43 ft | 2 kts | 23° |
| 2026-05-07 09:06 | -2.89739 | 104.70613 | 42 ft | 0 kts | 23° |
| 2026-05-07 09:08 | -2.89748 | 104.70609 | 51 ft | 2 kts | 23° |
| 2026-05-07 09:08 | -2.89733 | 104.70609 | 42 ft | 11 kts | 354° |
| 2026-05-07 09:08 | -2.89732 | 104.70561 | 44 ft | 14 kts | 201° |
| 2026-05-07 09:09 | -2.89879 | 104.70524 | 44 ft | 21 kts | 205° |
| 2026-05-07 09:09 | -2.89898 | 104.70515 | 44 ft | 0 kts | 203° |
| 2026-05-07 09:09 | -2.89907 | 104.70511 | 44 ft | 9 kts | 202° |
| 2026-05-07 09:10 | -2.90007 | 104.70428 | 45 ft | 28 kts | 258° |
| 2026-05-07 09:10 | -2.89892 | 104.70135 | 44 ft | 87 kts | 292° |
| 2026-05-07 09:10 | -2.89520 | 104.69245 | 102 ft | 180 kts | 300° |
| 2026-05-07 09:10 | -2.89021 | 104.68055 | 1140 ft | 194 kts | 295° |
| 2026-05-07 09:11 | -2.87973 | 104.67033 | 1974 ft | 232 kts | 335° |
| 2026-05-07 09:11 | -2.86333 | 104.66838 | 3033 ft | 255 kts | 13° |
| 2026-05-07 09:11 | -2.84742 | 104.67606 | 3898 ft | 255 kts | 44° |
| 2026-05-07 09:11 | -2.83807 | 104.69080 | 4375 ft | 259 kts | 77° |
| 2026-05-07 09:12 | -2.83858 | 104.70866 | 4977 ft | 260 kts | 109° |
| 2026-05-07 09:12 | -2.84896 | 104.72331 | 5614 ft | 262 kts | 141° |
| 2026-05-07 09:12 | -2.86472 | 104.73277 | 6264 ft | 266 kts | 150° |
| 2026-05-07 09:12 | -2.88124 | 104.74145 | 6870 ft | 270 kts | 149° |
| 2026-05-07 09:13 | -2.89646 | 104.75226 | 7433 ft | 273 kts | 136° |
| 2026-05-07 09:13 | -2.90915 | 104.76660 | 8069 ft | 276 kts | 124° |
| 2026-05-07 09:13 | -2.91905 | 104.78315 | 8707 ft | 279 kts | 114° |
| 2026-05-07 09:13 | -2.92493 | 104.80172 | 9366 ft | 281 kts | 99° |
| 2026-05-07 09:14 | -2.92675 | 104.82109 | 10018 ft | 284 kts | 89° |
| 2026-05-07 09:14 | -2.92337 | 104.84090 | 10400 ft | 297 kts | 70° |
| 2026-05-07 09:14 | -2.91172 | 104.85863 | 10604 ft | 317 kts | 44° |
| 2026-05-07 09:14 | -2.89225 | 104.86951 | 10788 ft | 336 kts | 17° |
| 2026-05-07 09:15 | -2.86828 | 104.87092 | 10990 ft | 356 kts | 352° |
| 2026-05-07 09:15 | -2.84387 | 104.86401 | 11189 ft | 370 kts | 342° |
| 2026-05-07 09:15 | -2.81373 | 104.85353 | 11672 ft | 377 kts | 342° |
| 2026-05-07 09:15 | -2.71440 | 104.82320 | 13526 ft | 388 kts | 345° |
| 2026-05-07 09:16 | -2.60909 | 104.79320 | 15182 ft | 397 kts | 345° |
| 2026-05-07 09:16 | -2.50082 | 104.76257 | 16897 ft | 406 kts | 345° |
| 2026-05-07 09:16 | -2.39072 | 104.73144 | 18458 ft | 415 kts | 345° |
| 2026-05-07 09:16 | -2.27972 | 104.70006 | 19802 ft | 423 kts | 345° |
| 2026-05-07 09:17 | -2.16478 | 104.66757 | 21117 ft | 432 kts | 345° |
| 2026-05-07 09:17 | -2.04857 | 104.63472 | 22392 ft | 440 kts | 345° |
| 2026-05-07 09:17 | -1.92959 | 104.60110 | 23547 ft | 448 kts | 345° |
| 2026-05-07 09:17 | -1.80727 | 104.56655 | 24482 ft | 456 kts | 345° |
| 2026-05-07 09:18 | -1.68513 | 104.53204 | 25455 ft | 462 kts | 345° |
| 2026-05-07 09:18 | -1.56056 | 104.49686 | 26454 ft | 468 kts | 345° |
| 2026-05-07 09:18 | -1.43441 | 104.46123 | 27523 ft | 473 kts | 345° |
| 2026-05-07 09:18 | -1.30666 | 104.42515 | 28569 ft | 480 kts | 345° |
| 2026-05-07 09:19 | -1.17675 | 104.38848 | 29626 ft | 487 kts | 345° |
| 2026-05-07 09:19 | -1.04619 | 104.35162 | 30386 ft | 497 kts | 345° |
| 2026-05-07 09:19 | -0.91202 | 104.31374 | 31329 ft | 503 kts | 345° |
| 2026-05-07 09:19 | -0.77548 | 104.27520 | 32179 ft | 510 kts | 345° |
| 2026-05-07 09:20 | -0.64007 | 104.23697 | 33296 ft | 508 kts | 345° |
| 2026-05-07 09:20 | -0.54906 | 104.21160 | 33773 ft | 507 kts | 347° |
| 2026-05-07 09:20 | -0.48047 | 104.19820 | 33038 ft | 501 kts | 350° |
| 2026-05-07 09:21 | -0.44591 | 104.19172 | 32033 ft | 506 kts | 350° |
| 2026-05-07 09:21 | -0.41111 | 104.18506 | 31102 ft | 509 kts | 349° |
| 2026-05-07 09:21 | -0.37616 | 104.17827 | 30218 ft | 511 kts | 349° |
| 2026-05-07 09:21 | -0.34153 | 104.17149 | 29485 ft | 509 kts | 349° |
| 2026-05-07 09:22 | -0.30677 | 104.16463 | 28866 ft | 504 kts | 349° |
| 2026-05-07 09:22 | -0.27288 | 104.15793 | 28247 ft | 499 kts | 349° |
| 2026-05-07 09:22 | -0.23876 | 104.15117 | 27626 ft | 494 kts | 349° |
| 2026-05-07 09:22 | -0.20554 | 104.14459 | 27012 ft | 489 kts | 349° |
| 2026-05-07 09:23 | -0.17216 | 104.13797 | 26423 ft | 485 kts | 349° |
| 2026-05-07 09:23 | -0.13910 | 104.13141 | 25829 ft | 480 kts | 349° |
| 2026-05-07 09:23 | -0.10661 | 104.12496 | 25241 ft | 476 kts | 349° |
| 2026-05-07 09:23 | -0.07421 | 104.11854 | 24651 ft | 472 kts | 349° |
| 2026-05-07 09:24 | -0.04226 | 104.11220 | 24076 ft | 468 kts | 349° |
| 2026-05-07 09:24 | -0.01024 | 104.10584 | 23488 ft | 465 kts | 349° |
| 2026-05-07 09:24 | 0.02111 | 104.09962 | 22916 ft | 459 kts | 349° |
| 2026-05-07 09:24 | 0.05209 | 104.09347 | 22777 ft | 443 kts | 349° |
| 2026-05-07 09:25 | 0.08182 | 104.08755 | 22655 ft | 427 kts | 349° |
| 2026-05-07 09:25 | 0.11032 | 104.08188 | 22484 ft | 414 kts | 349° |
| 2026-05-07 09:25 | 0.13827 | 104.07630 | 22303 ft | 401 kts | 349° |
| 2026-05-07 09:25 | 0.16491 | 104.07099 | 22122 ft | 389 kts | 349° |
| 2026-05-07 09:26 | 0.19106 | 104.06579 | 21951 ft | 377 kts | 349° |
| 2026-05-07 09:26 | 0.21647 | 104.06073 | 21772 ft | 365 kts | 349° |
| 2026-05-07 09:26 | 0.24139 | 104.05578 | 21371 ft | 362 kts | 349° |
| 2026-05-07 09:26 | 0.26572 | 104.05096 | 20956 ft | 359 kts | 349° |
| 2026-05-07 09:27 | 0.29016 | 104.04616 | 20579 ft | 355 kts | 350° |
| 2026-05-07 09:27 | 0.31441 | 104.04136 | 20236 ft | 351 kts | 349° |
| 2026-05-07 09:27 | 0.36196 | 104.03190 | 19614 ft | 348 kts | 349° |
| 2026-05-07 09:28 | 0.38566 | 104.02719 | 19307 ft | 346 kts | 349° |
| 2026-05-07 09:28 | 0.40905 | 104.02254 | 19002 ft | 344 kts | 349° |
| 2026-05-07 09:28 | 0.43247 | 104.01790 | 18695 ft | 342 kts | 349° |
| 2026-05-07 09:28 | 0.45595 | 104.01324 | 18393 ft | 341 kts | 349° |
| 2026-05-07 09:29 | 0.47922 | 104.00862 | 18092 ft | 339 kts | 349° |
| 2026-05-07 09:29 | 0.50215 | 104.00407 | 17769 ft | 338 kts | 349° |
| 2026-05-07 09:29 | 0.52523 | 103.99950 | 17454 ft | 336 kts | 349° |
| 2026-05-07 09:29 | 0.54797 | 103.99499 | 17157 ft | 334 kts | 349° |
| 2026-05-07 09:30 | 0.57082 | 103.99045 | 16853 ft | 333 kts | 349° |
| 2026-05-07 09:30 | 0.59351 | 103.98595 | 16566 ft | 331 kts | 349° |
| 2026-05-07 09:30 | 0.61605 | 103.98149 | 16333 ft | 326 kts | 349° |
| 2026-05-07 09:30 | 0.63773 | 103.97718 | 16176 ft | 314 kts | 349° |
| 2026-05-07 09:31 | 0.65898 | 103.97297 | 16036 ft | 303 kts | 349° |
| 2026-05-07 09:31 | 0.67261 | 103.97027 | 15894 ft | 298 kts | 349° |
| 2026-05-07 09:31 | 0.69926 | 103.96500 | 15458 ft | 294 kts | 349° |
| 2026-05-07 09:31 | 0.71280 | 103.96243 | 15233 ft | 291 kts | 352° |
| 2026-05-07 09:32 | 0.73881 | 103.96391 | 14805 ft | 282 kts | 18° |
| 2026-05-07 09:32 | 0.75112 | 103.96830 | 14543 ft | 281 kts | 22° |
| 2026-05-07 09:32 | 0.77502 | 103.97843 | 14158 ft | 278 kts | 24° |
| 2026-05-07 09:32 | 0.78685 | 103.98356 | 13984 ft | 278 kts | 24° |
| 2026-05-07 09:33 | 0.81036 | 103.99370 | 13659 ft | 277 kts | 24° |
| 2026-05-07 09:33 | 0.82230 | 103.99880 | 13482 ft | 276 kts | 24° |
| 2026-05-07 09:33 | 0.83976 | 104.00623 | 13220 ft | 275 kts | 24° |
| 2026-05-07 09:33 | 0.85743 | 104.01373 | 12978 ft | 274 kts | 24° |
| 2026-05-07 09:34 | 0.87501 | 104.02118 | 12725 ft | 273 kts | 24° |
| 2026-05-07 09:34 | 0.89227 | 104.02849 | 12494 ft | 272 kts | 24° |
| 2026-05-07 09:34 | 0.90971 | 104.03586 | 12251 ft | 271 kts | 24° |
| 2026-05-07 09:34 | 0.92719 | 104.04326 | 12012 ft | 270 kts | 24° |
| 2026-05-07 09:35 | 0.94431 | 104.05050 | 11768 ft | 269 kts | 24° |
| 2026-05-07 09:35 | 0.96158 | 104.05780 | 11528 ft | 268 kts | 24° |
| 2026-05-07 09:35 | 0.97863 | 104.06501 | 11308 ft | 267 kts | 24° |
| 2026-05-07 09:35 | 0.99582 | 104.07228 | 11075 ft | 267 kts | 24° |
| 2026-05-07 09:36 | 1.01290 | 104.07951 | 10841 ft | 265 kts | 24° |
| 2026-05-07 09:36 | 1.02975 | 104.08663 | 10724 ft | 265 kts | 24° |
| 2026-05-07 09:36 | 1.04678 | 104.09383 | 10563 ft | 264 kts | 24° |
| 2026-05-07 09:36 | 1.06378 | 104.10102 | 10346 ft | 264 kts | 24° |
| 2026-05-07 09:37 | 1.08070 | 104.10818 | 10113 ft | 263 kts | 24° |
| 2026-05-07 09:37 | 1.09732 | 104.11520 | 9881 ft | 262 kts | 24° |
| 2026-05-07 09:37 | 1.11414 | 104.12232 | 9643 ft | 261 kts | 24° |
| 2026-05-07 09:37 | 1.13090 | 104.12941 | 9397 ft | 260 kts | 24° |
| 2026-05-07 09:38 | 1.14757 | 104.13652 | 9145 ft | 259 kts | 24° |
| 2026-05-07 09:38 | 1.16400 | 104.14353 | 8901 ft | 258 kts | 24° |
| 2026-05-07 09:38 | 1.18051 | 104.15056 | 8689 ft | 257 kts | 24° |
| 2026-05-07 09:38 | 1.19704 | 104.15760 | 8447 ft | 256 kts | 24° |
| 2026-05-07 09:39 | 1.21348 | 104.16460 | 8202 ft | 256 kts | 24° |
| 2026-05-07 09:39 | 1.22968 | 104.17150 | 8002 ft | 255 kts | 24° |
| 2026-05-07 09:39 | 1.24605 | 104.17848 | 7760 ft | 254 kts | 23° |
| 2026-05-07 09:39 | 1.26220 | 104.18537 | 7523 ft | 253 kts | 23° |
| 2026-05-07 09:40 | 1.27845 | 104.19229 | 7309 ft | 253 kts | 23° |
| 2026-05-07 09:40 | 1.29463 | 104.19919 | 7088 ft | 252 kts | 23° |
| 2026-05-07 09:40 | 1.31052 | 104.20596 | 6853 ft | 251 kts | 23° |
| 2026-05-07 09:40 | 1.32702 | 104.21112 | 6627 ft | 250 kts | 7° |
| 2026-05-07 09:41 | 1.34446 | 104.21014 | 6394 ft | 251 kts | 350° |
| 2026-05-07 09:41 | 1.36141 | 104.20663 | 6171 ft | 251 kts | 347° |
| 2026-05-07 09:41 | 1.37851 | 104.20269 | 5927 ft | 250 kts | 347° |
| 2026-05-07 09:41 | 1.39549 | 104.19882 | 5704 ft | 249 kts | 347° |
| 2026-05-07 09:42 | 1.41219 | 104.19511 | 5466 ft | 248 kts | 347° |
| 2026-05-07 09:42 | 1.42909 | 104.19141 | 5257 ft | 247 kts | 347° |
| 2026-05-07 09:42 | 1.44594 | 104.18775 | 5045 ft | 246 kts | 347° |
| 2026-05-07 09:42 | 1.46222 | 104.18424 | 4923 ft | 235 kts | 347° |
| 2026-05-07 09:43 | 1.47788 | 104.18089 | 4801 ft | 224 kts | 347° |
| 2026-05-07 09:43 | 1.49294 | 104.17766 | 4598 ft | 219 kts | 347° |
| 2026-05-07 09:43 | 1.50678 | 104.17227 | 4336 ft | 215 kts | 322° |
| 2026-05-07 09:43 | 1.51511 | 104.16034 | 4074 ft | 212 kts | 282° |
| 2026-05-07 09:44 | 1.51424 | 104.14594 | 3885 ft | 208 kts | 252° |
| 2026-05-07 09:44 | 1.50947 | 104.13218 | 3826 ft | 210 kts | 248° |
| 2026-05-07 09:44 | 1.50434 | 104.11876 | 3699 ft | 206 kts | 247° |
| 2026-05-07 09:44 | 1.49928 | 104.10534 | 3375 ft | 207 kts | 248° |
| 2026-05-07 09:45 | 1.49431 | 104.09182 | 3091 ft | 208 kts | 248° |
| 2026-05-07 09:45 | 1.48948 | 104.07842 | 3009 ft | 203 kts | 249° |
| 2026-05-07 09:45 | 1.48477 | 104.06522 | 3005 ft | 200 kts | 248° |
| 2026-05-07 09:45 | 1.47865 | 104.05324 | 2721 ft | 190 kts | 227° |
| 2026-05-07 09:46 | 1.46855 | 104.04425 | 2422 ft | 193 kts | 217° |
| 2026-05-07 09:46 | 1.45720 | 104.03884 | 2292 ft | 174 kts | 195° |
| 2026-05-07 09:46 | 1.44617 | 104.03498 | 2051 ft | 163 kts | 202° |
| 2026-05-07 09:46 | 1.43591 | 104.03018 | 1717 ft | 161 kts | 202° |
| 2026-05-07 09:47 | 1.42564 | 104.02585 | 1415 ft | 159 kts | 200° |
| 2026-05-07 09:47 | 1.41575 | 104.02169 | 1174 ft | 152 kts | 201° |
| 2026-05-07 09:47 | 1.40638 | 104.01767 | 973 ft | 141 kts | 201° |
| 2026-05-07 09:47 | 1.39741 | 104.01387 | 828 ft | 139 kts | 202° |
| 2026-05-07 09:48 | 1.38840 | 104.01005 | 659 ft | 141 kts | 201° |
| 2026-05-07 09:48 | 1.37952 | 104.00619 | 453 ft | 141 kts | 200° |
| 2026-05-07 09:48 | 1.37061 | 104.00243 | 229 ft | 140 kts | 198° |
| 2026-05-07 09:48 | 1.36165 | 103.99879 | 100 ft | 142 kts | 199° |
| 2026-05-07 09:49 | 1.35273 | 103.99496 | 32 ft | 135 kts | 200° |
| 2026-05-07 09:49 | 1.34567 | 103.99206 | 30 ft | 72 kts | 202° |
| 2026-05-07 09:49 | 1.34377 | 103.99123 | 30 ft | 3 kts | 203° |
| 2026-05-07 09:49 | 1.34195 | 103.99076 | 30 ft | 37 kts | 182° |
| 2026-05-07 09:50 | 1.34017 | 103.99091 | 30 ft | 14 kts | 143° |
| 2026-05-07 09:50 | 1.34027 | 103.99169 | 30 ft | 11 kts | 36° |
| 2026-05-07 09:50 | 1.34040 | 103.99175 | 30 ft | 0 kts | 20° |
| 2026-05-07 09:50 | 1.34042 | 103.99175 | 30 ft | 1 kts | 20° |
| 2026-05-07 09:51 | 1.34065 | 103.99183 | 30 ft | 6 kts | 17° |
| 2026-05-07 09:51 | 1.34112 | 103.99199 | 30 ft | 9 kts | 28° |
| 2026-05-07 09:51 | 1.34184 | 103.99236 | 30 ft | 20 kts | 26° |
| 2026-05-07 09:51 | 1.34386 | 103.99325 | 30 ft | 41 kts | 24° |
| 2026-05-07 09:52 | 1.34648 | 103.99436 | 30 ft | 36 kts | 27° |
| 2026-05-07 09:52 | 1.34701 | 103.99446 | 30 ft | 6 kts | 283° |
| 2026-05-07 09:52 | 1.34837 | 103.99281 | 30 ft | 59 kts | 322° |
| 2026-05-07 09:52 | 1.35204 | 103.99251 | 30 ft | 42 kts | 6° |
| 2026-05-07 09:53 | 1.35289 | 103.99230 | 30 ft | 2 kts | 281° |
| 2026-05-07 09:53 | 1.35273 | 103.99188 | 30 ft | 8 kts | 246° |
| 2026-05-07 09:53 | 1.35263 | 103.99170 | 30 ft | 1 kts | 241° |
| 2026-05-07 09:53 | 1.35254 | 103.99153 | 30 ft | 2 kts | 240° |
| 2026-05-07 09:54 | 1.35253 | 103.99152 | 30 ft | 0 kts | 240° |